San Francisco, CA (94131)

9:58 AM PST on December 26, 2014 (GMT -0800)
APRSWXNET San Francisco CA US | Change Station
CLOSE
Current Station
Personal Weather Station
Location: San Francisco, CA
Elevation: 406 ft
Nearby Weather Stations

Elev 406 ft 37.74 °N, 122.44 °W | Updated 24 minutes ago

Clear
Clear
52 °F
Feels Like 52 °F
N
7
Wind Variable Wind from NNW
Gusts 0.0 mph

Today
High -- | Low -- °F
--% Chance of Precip.
Yesterday
High -- | Low -- °F
Precip. -- in
7:23 AM 4:57 PM
Waxing Crescent, 28% visible
Pressure 30.20 in
Visibility 10.0 miles
Clouds Clear
Dew Point 31 °F
Humidity 45%
Rainfall -999.00 in
Snow Depth Not available.
UV 1 out of 12
Pollen 5.90 out of 12
Air Quality Not available.
Flu Activity Not available.
METAR KSFO 261656Z 35015G22KT 10SM CLR 12/02 A3020 RMK AO2 SLP227 T01170022

More Conditions Fewer Conditions

Pressure 30.20 in
Visibility 10.0 miles
Clouds Clear
Dew Point 31 °F
Humidity 45%
Rainfall -999.00 in
Snow Depth Not available.
UV 1 out of 12
Pollen 5.90 out of 12
Air Quality Not available.
Flu Activity Not available.
METAR KSFO 261656Z 35015G22KT 10SM CLR 12/02 A3020 RMK AO2 SLP227 T01170022

More Conditions Fewer Conditions

10-Day Weather Forecast

Almanac

Astronomy

Dec. 26, 2014 Rise Set
Actual Time
Civil Twilight
Nautical Twilight
Astronomical Twilight
Moon
Length of Visible Light
Length of Day
Tomorrow will be .
, % of the Moon is Illuminated

Today's Extremes

State Highs State Lows

Community

WunderPhotos

Upload Photos

1,780,654 photos uploaded!

WunderBlogs® & News

Nearby

Air Quality

  Air Quality AQ Index Pollutant
Not available.

Snow Depth

Station Depth Elevation

Earthquake Activity

City Distance Mag. Time & Date
Minimum magnitude displayed is 2.5.

Coastal Water Temperatures

Place Temperature

Nearby Weather Stations